Fairbanks, AK (99775)

8:29 AM AKDT on April 28, 2017 (GMT -0800)
Homestead | | Change Station

Elev 446 ft 64.86 °N, 147.78 °W | Updated 3 seconds ago

Mostly Cloudy
Mostly Cloudy
35.7 °F
Feels Like 36 °F
N
0.0
Wind Variable Wind from NNE

Today
High -- | Low -- °F
--% Chance of Precip.
Yesterday
High -- | Low -- °F
Precip. -- in
Pressure 29.99 in
Visibility 10.0 miles
Clouds Mostly Cloudy 6500 ft
Mostly Cloudy 12000 ft
Mostly Cloudy 20000 ft
Windchill 36 °F
Dew Point 25 °F
Humidity 65%
Rainfall 0.00 in
Snow Depth Not available.
5:27 AM 10:12 PM
Waxing Crescent, 7% visible
METAR PAFA 281553Z 03003KT 10SM BKN065 BKN120 BKN200 01/M03 A2997 RMK AO2 SLP154 T00111028 $
Pressure 29.99 in
Visibility 10.0 miles
Clouds Mostly Cloudy 6500 ft
Mostly Cloudy 12000 ft
Mostly Cloudy 20000 ft
Windchill 36 °F
Dew Point 25 °F
Humidity 65%
Rainfall 0.00 in
Snow Depth Not available.
5:27 AM 10:12 PM
Waxing Crescent, 7% visible
METAR PAFA 281553Z 03003KT 10SM BKN065 BKN120 BKN200 01/M03 A2997 RMK AO2 SLP154 T00111028 $

Get Severe Weather Alerts

Thanks for signing up!

Be on the lookout for a verification email in your inbox.

You'll start receiving the daily forecast at 8 AM.

×

10-Day Weather Forecast

Almanac

Astronomy

Apr. 28, 2017 Rise Set
Actual Time
Civil Twilight
Nautical Twilight
Astronomical Twilight
Moon
Length of Visible Light
Length of Day
Tomorrow will be .
, % of the Moon is Illuminated

Today's Extremes

State Highs State Lows

Community

WunderPhotos

WunderBlog® & News

Nearby

Air Quality

  Air Quality AQ Index Pollutant
Not available.

Snow Depth

Station Depth Elevation

Earthquake Activity

City Distance Mag. Time & Date
Minimum magnitude displayed is 2.5.

Coastal Water Temperatures

Place Temperature

Stations

Nearby Weather Stations

Station Location Temp. Windchill Dew Point Humidity Wind Precip. Elev Updated Type
                   

Watches & Warnings

There are currently no watches in effect.